Time;durP1;ratioP1;P1;durP2;ratioP2;P2;SDS_P1;SDS_P2;PMS_P1;PMS_P2;Temp;Humidity;BMP_temperature;BMP_pressure;BME280_temperature;BME280_humidity;BME280_pressure;Samples;Min_cycle;Max_cycle;Signal;HPM_P1;HPM_P2
2023/09/11 00:01:07;;;;;;;0.00;0.00;;;;;;;;;;5081216;28;20260;-74
2023/09/11 00:03:33;;;;;;;0.00;0.00;;;;;;;;;;5092370;28;20477;-76
2023/09/11 00:06:03;;;;;;;0.10;0.10;;;;;;;;;;5080727;28;20253;-76
2023/09/11 00:08:29;;;;;;;0.10;0.10;;;;;;;;;;5092338;28;20285;-76
2023/09/11 00:10:55;;;;;;;0.10;0.10;;;;;;;;;;5079907;28;20247;-75
2023/09/11 00:13:23;;;;;;;0.10;0.10;;;;;;;;;;5093144;28;20219;-75
2023/09/11 00:15:50;;;;;;;0.10;0.10;;;;;;;;;;5079118;28;20257;-75
2023/09/11 00:18:16;;;;;;;0.05;0.05;;;;;;;;;;5094150;28;20238;-76
2023/09/11 00:20:42;;;;;;;0.03;0.03;;;;;;;;;;5078170;28;20261;-75
2023/09/11 00:23:09;;;;;;;0.00;0.00;;;;;;;;;;5094893;28;20456;-75
2023/09/11 00:25:35;;;;;;;0.10;0.10;;;;;;;;;;5077256;28;20585;-75
2023/09/11 00:28:02;;;;;;;0.10;0.10;;;;;;;;;;5096057;28;20512;-75
2023/09/11 00:30:29;;;;;;;0.10;0.10;;;;;;;;;;5076127;28;20286;-75
2023/09/11 00:32:56;;;;;;;0.10;0.10;;;;;;;;;;5095967;28;20257;-77
2023/09/11 00:35:22;;;;;;;0.00;0.00;;;;;;;;;;5075518;28;20213;-76
2023/09/11 00:37:48;;;;;;;0.00;0.00;;;;;;;;;;5097654;28;20434;-75
2023/09/11 00:40:15;;;;;;;0.00;0.00;;;;;;;;;;5074561;28;20245;-75
2023/09/11 00:42:41;;;;;;;0.05;0.05;;;;;;;;;;5098137;28;20278;-75
2023/09/11 00:45:08;;;;;;;0.10;0.10;;;;;;;;;;5080263;28;20202;-74
2023/09/11 00:47:36;;;;;;;0.10;0.10;;;;;;;;;;5098928;28;20276;-75
2023/09/11 00:50:02;;;;;;;0.10;0.10;;;;;;;;;;5083907;28;20214;-74
2023/09/11 00:52:29;;;;;;;0.10;0.10;;;;;;;;;;5088752;28;20263;-75
2023/09/11 00:54:55;;;;;;;0.10;0.10;;;;;;;;;;5083790;28;20207;-75
2023/09/11 00:57:22;;;;;;;0.00;0.00;;;;;;;;;;5088787;28;20240;-75
2023/09/11 00:59:49;;;;;;;0.10;0.10;;;;;;;;;;5083818;28;20504;-75
2023/09/11 01:02:15;;;;;;;0.10;0.10;;;;;;;;;;5088810;28;20448;-75
2023/09/11 01:04:44;;;;;;;0.10;0.10;;;;;;;;;;5083700;28;20206;-75
2023/09/11 01:07:12;;;;;;;0.10;0.10;;;;;;;;;;5088822;28;20256;-75
2023/09/11 01:09:39;;;;;;;0.10;0.10;;;;;;;;;;5083638;28;20214;-75
2023/09/11 01:12:05;;;;;;;0.10;0.10;;;;;;;;;;5088269;28;20242;-75
2023/09/11 01:14:32;;;;;;;0.10;0.10;;;;;;;;;;5083716;28;20511;-76
2023/09/11 01:17:02;;;;;;;0.38;0.38;;;;;;;;;;5087274;28;20312;-77
2023/09/11 01:19:42;;;;;;;0.00;0.00;;;;;;;;;;5083910;28;20205;-76
2023/09/11 01:22:25;;;;;;;0.30;0.30;;;;;;;;;;5088634;28;20239;-75
2023/09/11 01:25:07;;;;;;;0.10;0.10;;;;;;;;;;5083609;28;20295;-76
2023/09/11 01:28:07;;;;;;;0.10;0.10;;;;;;;;;;5071670;28;20589;-76
2023/09/11 01:30:35;;;;;;;0.00;0.00;;;;;;;;;;5011601;28;20246;-75
2023/09/11 01:33:02;;;;;;;0.10;0.10;;;;;;;;;;5021583;28;20205;-75
2023/09/11 01:35:28;;;;;;;0.00;0.00;;;;;;;;;;5041340;28;20249;-76
2023/09/11 01:37:55;;;;;;;0.10;0.10;;;;;;;;;;5096177;28;20272;-76
2023/09/11 01:40:22;;;;;;;0.00;0.00;;;;;;;;;;5074789;28;20225;-75
2023/09/11 01:42:50;;;;;;;0.10;0.10;;;;;;;;;;5096942;28;20231;-75
2023/09/11 01:45:17;;;;;;;0.08;0.08;;;;;;;;;;5077398;28;20277;-75
2023/09/11 01:47:45;;;;;;;0.10;0.10;;;;;;;;;;5101521;28;20445;-75
2023/09/11 01:50:14;;;;;;;0.00;0.00;;;;;;;;;;5077208;28;20390;-76
2023/09/11 01:52:41;;;;;;;0.10;0.10;;;;;;;;;;5101445;28;20235;-76
2023/09/11 01:55:08;;;;;;;0.00;0.00;;;;;;;;;;5086892;28;20273;-75
2023/09/11 01:57:35;;;;;;;0.10;0.10;;;;;;;;;;5074981;28;20290;-76
2023/09/11 02:00:01;;;;;;;0.10;0.10;;;;;;;;;;5086888;28;20261;-74
2023/09/11 02:02:29;;;;;;;0.10;0.10;;;;;;;;;;5091884;28;20476;-77
2023/09/11 02:04:57;;;;;;;0.10;0.10;;;;;;;;;;5086835;28;20269;-75
2023/09/11 02:07:23;;;;;;;0.10;0.10;;;;;;;;;;5091742;28;20240;-77
2023/09/11 02:09:49;;;;;;;0.10;0.10;;;;;;;;;;5086631;28;20262;-76
2023/09/11 02:12:16;;;;;;;0.00;0.00;;;;;;;;;;5091714;28;20311;-75
2023/09/11 02:14:42;;;;;;;0.08;0.08;;;;;;;;;;5086580;28;20209;-76
2023/09/11 02:17:08;;;;;;;0.00;0.00;;;;;;;;;;5091530;28;20265;-75
2023/09/11 02:19:35;;;;;;;0.10;0.10;;;;;;;;;;5086509;28;20436;-76
2023/09/11 02:22:03;;;;;;;0.10;0.10;;;;;;;;;;5090563;28;20240;-75
2023/09/11 02:24:29;;;;;;;0.10;0.10;;;;;;;;;;5086935;28;20309;-75
2023/09/11 02:26:56;;;;;;;0.10;0.10;;;;;;;;;;5089729;28;20302;-76
2023/09/11 02:29:22;;;;;;;0.10;0.10;;;;;;;;;;5087618;28;20238;-75
2023/09/11 02:31:49;;;;;;;0.00;0.00;;;;;;;;;;5088768;28;20263;-76
2023/09/11 02:34:15;;;;;;;0.10;0.10;;;;;;;;;;5088362;28;20278;-76
2023/09/11 02:36:41;;;;;;;0.10;0.10;;;;;;;;;;5087774;28;20269;-76
2023/09/11 02:39:09;;;;;;;0.00;0.00;;;;;;;;;;5089414;28;20274;-75
2023/09/11 02:41:35;;;;;;;0.03;0.03;;;;;;;;;;5086901;28;20273;-75
2023/09/11 02:44:02;;;;;;;0.10;0.10;;;;;;;;;;5089795;28;20536;-74
2023/09/11 02:46:28;;;;;;;0.03;0.03;;;;;;;;;;5085902;28;20261;-76
2023/09/11 02:48:55;;;;;;;0.10;0.10;;;;;;;;;;5090763;28;20462;-75
2023/09/11 02:51:21;;;;;;;0.10;0.10;;;;;;;;;;5084929;28;20303;-76
2023/09/11 02:53:47;;;;;;;0.05;0.05;;;;;;;;;;5091842;28;20236;-75
2023/09/11 02:56:15;;;;;;;0.10;0.10;;;;;;;;;;5083086;28;20514;-76
2023/09/11 02:58:41;;;;;;;0.08;0.08;;;;;;;;;;5092240;28;20253;-76
2023/09/11 03:01:08;;;;;;;0.30;0.30;;;;;;;;;;5082862;28;20265;-76
2023/09/11 03:03:34;;;;;;;0.08;0.08;;;;;;;;;;5092953;28;20296;-76
2023/09/11 03:06:02;;;;;;;0.20;0.20;;;;;;;;;;5081924;28;20312;-76
2023/09/11 03:08:28;;;;;;;0.10;0.10;;;;;;;;;;5093566;28;20211;-75
2023/09/11 03:10:55;;;;;;;0.00;0.00;;;;;;;;;;5081196;28;20313;-76
2023/09/11 03:13:22;;;;;;;0.10;0.10;;;;;;;;;;5094647;28;20237;-75
2023/09/11 03:15:49;;;;;;;0.10;0.10;;;;;;;;;;5080236;28;20521;-75
2023/09/11 03:18:15;;;;;;;0.08;0.08;;;;;;;;;;5095028;28;20204;-76
2023/09/11 03:20:41;;;;;;;0.10;0.10;;;;;;;;;;5079080;28;20301;-75
2023/09/11 03:23:08;;;;;;;0.00;0.00;;;;;;;;;;5095837;28;20243;-75
2023/09/11 03:25:34;;;;;;;0.08;0.08;;;;;;;;;;5078093;28;20240;-75
2023/09/11 03:28:01;;;;;;;0.00;0.00;;;;;;;;;;5097156;28;20198;-74
2023/09/11 03:30:29;;;;;;;0.00;0.00;;;;;;;;;;5077480;28;20284;-76
2023/09/11 03:32:55;;;;;;;0.10;0.10;;;;;;;;;;5097661;28;20220;-76
2023/09/11 03:35:21;;;;;;;0.03;0.03;;;;;;;;;;5076437;28;20245;-75
2023/09/11 03:37:48;;;;;;;0.00;0.00;;;;;;;;;;5098720;28;20259;-76
2023/09/11 03:40:15;;;;;;;0.20;0.20;;;;;;;;;;5075426;28;20277;-75
2023/09/11 03:42:41;;;;;;;0.00;0.00;;;;;;;;;;5099217;28;20456;-76
2023/09/11 03:45:08;;;;;;;0.10;0.10;;;;;;;;;;5080558;28;20265;-75
2023/09/11 03:47:36;;;;;;;0.00;0.00;;;;;;;;;;5100163;28;20446;-76
2023/09/11 03:50:04;;;;;;;0.10;0.10;;;;;;;;;;5084776;28;20237;-75
2023/09/11 03:52:30;;;;;;;0.00;0.00;;;;;;;;;;5089830;28;20292;-75
2023/09/11 03:54:56;;;;;;;0.00;0.00;;;;;;;;;;5084666;28;20271;-76
2023/09/11 03:57:23;;;;;;;0.10;0.10;;;;;;;;;;5089749;28;20504;-75
2023/09/11 03:59:49;;;;;;;0.00;0.00;;;;;;;;;;5084576;28;20440;-75
2023/09/11 04:02:16;;;;;;;0.10;0.10;;;;;;;;;;5089404;28;20477;-76
2023/09/11 04:04:43;;;;;;;0.10;0.10;;;;;;;;;;5084269;28;20294;-75
2023/09/11 04:07:10;;;;;;;0.10;0.10;;;;;;;;;;5089270;28;20259;-75
2023/09/11 04:09:36;;;;;;;0.10;0.10;;;;;;;;;;5084252;28;20211;-75
2023/09/11 04:12:03;;;;;;;0.00;0.00;;;;;;;;;;5088710;28;20241;-75
2023/09/11 04:14:29;;;;;;;0.10;0.10;;;;;;;;;;5084916;28;20243;-75
2023/09/11 04:16:56;;;;;;;0.10;0.10;;;;;;;;;;5087647;28;20310;-76
2023/09/11 04:19:23;;;;;;;0.20;0.20;;;;;;;;;;5085176;28;20238;-76
2023/09/11 04:21:51;;;;;;;0.00;0.00;;;;;;;;;;5086818;28;20307;-76
2023/09/11 04:24:17;;;;;;;0.10;0.10;;;;;;;;;;5086019;28;20262;-75
2023/09/11 04:26:44;;;;;;;0.10;0.10;;;;;;;;;;5086015;28;20239;-76
2023/09/11 04:29:11;;;;;;;0.08;0.08;;;;;;;;;;5086971;28;20237;-76
2023/09/11 04:31:38;;;;;;;0.10;0.10;;;;;;;;;;5085070;28;20245;-76
2023/09/11 04:34:04;;;;;;;0.05;0.05;;;;;;;;;;5087793;28;20385;-75
2023/09/11 04:36:30;;;;;;;0.00;0.00;;;;;;;;;;5084123;28;20263;-76
2023/09/11 04:38:58;;;;;;;0.00;0.00;;;;;;;;;;5088542;28;20210;-76
2023/09/11 04:41:24;;;;;;;0.38;0.38;;;;;;;;;;5083284;28;20582;-75
2023/09/11 04:43:51;;;;;;;0.00;0.00;;;;;;;;;;5089111;28;20278;-76
2023/09/11 04:46:17;;;;;;;0.25;0.25;;;;;;;;;;5082377;28;20488;-76
2023/09/11 04:48:44;;;;;;;0.10;0.10;;;;;;;;;;5090264;28;20277;-76
2023/09/11 04:51:10;;;;;;;0.10;0.10;;;;;;;;;;5081361;28;20470;-76
2023/09/11 04:53:36;;;;;;;0.10;0.10;;;;;;;;;;5091193;28;20310;-76
2023/09/11 04:56:04;;;;;;;0.10;0.10;;;;;;;;;;5080555;28;20241;-75
2023/09/11 04:58:31;;;;;;;0.05;0.05;;;;;;;;;;5091676;28;20209;-76
2023/09/11 05:00:57;;;;;;;0.10;0.10;;;;;;;;;;5079492;28;20240;-76
2023/09/11 05:03:23;;;;;;;0.00;0.00;;;;;;;;;;5092412;28;20212;-76
2023/09/11 05:05:50;;;;;;;0.10;0.10;;;;;;;;;;5078415;28;20308;-76
2023/09/11 05:08:16;;;;;;;0.10;0.10;;;;;;;;;;5093415;28;20228;-75
2023/09/11 05:10:43;;;;;;;0.10;0.10;;;;;;;;;;5077761;28;20450;-76
2023/09/11 05:13:11;;;;;;;0.05;0.05;;;;;;;;;;5094472;28;20380;-75
2023/09/11 05:15:37;;;;;;;0.10;0.10;;;;;;;;;;5076749;28;20407;-75
2023/09/11 05:18:04;;;;;;;0.10;0.10;;;;;;;;;;5094821;28;20252;-75
2023/09/11 05:20:30;;;;;;;0.00;0.00;;;;;;;;;;5080124;28;20255;-75
2023/09/11 05:22:57;;;;;;;0.10;0.10;;;;;;;;;;5100084;28;20194;-75
2023/09/11 05:25:23;;;;;;;0.08;0.08;;;;;;;;;;5079075;28;20233;-75
2023/09/11 05:27:50;;;;;;;0.00;0.00;;;;;;;;;;5100895;28;20187;-74
2023/09/11 05:30:17;;;;;;;0.10;0.10;;;;;;;;;;5078142;28;20447;-75
2023/09/11 05:32:47;;;;;;;0.10;0.10;;;;;;;;;;5101771;28;20399;-75
2023/09/11 05:35:14;;;;;;;0.45;0.45;;;;;;;;;;5077742;28;20241;-75
2023/09/11 05:37:40;;;;;;;0.10;0.10;;;;;;;;;;5101794;28;20193;-75
2023/09/11 05:40:08;;;;;;;0.10;0.10;;;;;;;;;;5087127;28;20206;-75
2023/09/11 05:42:34;;;;;;;0.10;0.10;;;;;;;;;;5055411;28;20218;-75
2023/09/11 05:45:00;;;;;;;0.38;0.38;;;;;;;;;;5067041;28;20216;-76
2023/09/11 05:47:28;;;;;;;0.05;0.05;;;;;;;;;;5091508;28;20481;-75
2023/09/11 05:50:00;;;;;;;0.10;0.10;;;;;;;;;;5086709;28;20200;-76
2023/09/11 05:52:26;;;;;;;0.10;0.10;;;;;;;;;;5091997;28;20271;-75
2023/09/11 05:54:52;;;;;;;0.10;0.10;;;;;;;;;;5086918;28;20269;-75
2023/09/11 05:57:19;;;;;;;0.00;0.00;;;;;;;;;;5092006;28;20242;-76
2023/09/11 05:59:46;;;;;;;0.10;0.10;;;;;;;;;;5086940;28;20417;-76
2023/09/11 06:02:12;;;;;;;0.00;0.00;;;;;;;;;;5091896;28;20247;-75
2023/09/11 06:04:40;;;;;;;0.20;0.20;;;;;;;;;;5086711;28;20251;-77
2023/09/11 06:07:06;;;;;;;0.00;0.00;;;;;;;;;;5091789;28;20416;-81
2023/09/11 06:09:33;;;;;;;0.03;0.03;;;;;;;;;;5086851;28;20271;-78
2023/09/11 06:11:59;;;;;;;0.10;0.10;;;;;;;;;;5090743;28;20260;-78
2023/09/11 06:14:26;;;;;;;0.10;0.10;;;;;;;;;;5087387;28;20236;-77
2023/09/11 06:16:52;;;;;;;0.10;0.10;;;;;;;;;;5089475;28;20245;-76
2023/09/11 06:19:18;;;;;;;0.10;0.10;;;;;;;;;;5088454;28;20275;-76
2023/09/11 06:21:46;;;;;;;0.03;0.03;;;;;;;;;;5088603;28;20305;-74
2023/09/11 06:24:13;;;;;;;0.10;0.10;;;;;;;;;;5089034;28;20270;-75
2023/09/11 06:26:42;;;;;;;0.08;0.08;;;;;;;;;;5087764;28;20239;-74
2023/09/11 06:29:09;;;;;;;0.10;0.10;;;;;;;;;;5089684;28;20401;-75
2023/09/11 06:31:35;;;;;;;0.03;0.03;;;;;;;;;;5085844;28;20518;-74
2023/09/11 06:34:02;;;;;;;0.20;0.20;;;;;;;;;;5090542;28;20240;-73
2023/09/11 06:36:28;;;;;;;0.20;0.20;;;;;;;;;;5086299;28;20247;-76
2023/09/11 06:38:56;;;;;;;0.05;0.05;;;;;;;;;;5091328;28;20208;-76
2023/09/11 06:41:22;;;;;;;0.10;0.10;;;;;;;;;;5085116;28;20240;-75
2023/09/11 06:43:49;;;;;;;0.00;0.00;;;;;;;;;;5091998;28;20239;-75
2023/09/11 06:46:31;;;;;;;;;;;;;;;;;;;;;
2023/09/11 06:48:58;;;;;;;0.10;0.10;;;;;;;;;;5091135;28;20247;-76
2023/09/11 06:51:24;;;;;;;0.00;0.00;;;;;;;;;;5081445;28;20264;-76
2023/09/11 06:53:53;;;;;;;0.85;0.85;;;;;;;;;;5091696;28;20276;-76
2023/09/11 06:56:21;;;;;;;0.00;0.00;;;;;;;;;;5084434;28;20245;-76
2023/09/11 06:58:47;;;;;;;0.00;0.00;;;;;;;;;;5091740;28;20210;-76
2023/09/11 07:01:14;;;;;;;0.10;0.10;;;;;;;;;;5083843;28;20303;-74
2023/09/11 07:03:40;;;;;;;0.10;0.10;;;;;;;;;;5092474;28;20207;-76
2023/09/11 07:06:06;;;;;;;0.10;0.10;;;;;;;;;;5082531;28;20313;-76
2023/09/11 07:08:33;;;;;;;0.03;0.03;;;;;;;;;;5093639;28;20228;-75
2023/09/11 07:10:59;;;;;;;0.10;0.10;;;;;;;;;;5081773;28;20239;-76
2023/09/11 07:13:28;;;;;;;0.10;0.10;;;;;;;;;;5094371;28;20245;-76
2023/09/11 07:15:55;;;;;;;0.00;0.00;;;;;;;;;;5080990;28;20256;-75
2023/09/11 07:18:22;;;;;;;0.03;0.03;;;;;;;;;;5094652;28;20212;-74
2023/09/11 07:20:48;;;;;;;0.10;0.10;;;;;;;;;;5080048;28;20240;-75
2023/09/11 07:23:16;;;;;;;0.00;0.00;;;;;;;;;;5095309;28;20256;-75
2023/09/11 07:25:43;;;;;;;0.00;0.00;;;;;;;;;;5078645;28;20316;-75
2023/09/11 07:28:09;;;;;;;0.03;0.03;;;;;;;;;;5096084;28;20271;-74
2023/09/11 07:30:38;;;;;;;0.00;0.00;;;;;;;;;;5078439;28;20239;-75
2023/09/11 07:33:04;;;;;;;0.00;0.00;;;;;;;;;;5096835;28;20429;-75
2023/09/11 07:35:31;;;;;;;0.40;0.40;;;;;;;;;;5077953;28;20240;-76
2023/09/11 07:37:59;;;;;;;0.10;0.10;;;;;;;;;;5097293;28;20264;-76
2023/09/11 07:40:25;;;;;;;0.03;0.03;;;;;;;;;;5077078;28;20234;-75
2023/09/11 07:42:52;;;;;;;0.10;0.10;;;;;;;;;;5097582;28;20267;-75
2023/09/11 07:45:19;;;;;;;0.10;0.10;;;;;;;;;;5076012;28;20544;-76
2023/09/11 07:47:47;;;;;;;0.00;0.00;;;;;;;;;;5098684;28;20229;-75
2023/09/11 07:50:13;;;;;;;0.10;0.10;;;;;;;;;;5075173;28;20238;-75
2023/09/11 07:52:39;;;;;;;0.10;0.10;;;;;;;;;;5099716;28;20259;-75
2023/09/11 07:55:06;;;;;;;0.00;0.00;;;;;;;;;;5084644;28;20245;-75
2023/09/11 07:57:33;;;;;;;0.05;0.05;;;;;;;;;;5072902;28;20203;-75
2023/09/11 08:00:04;;;;;;;0.00;0.00;;;;;;;;;;5084784;28;20209;-76
2023/09/11 08:02:31;;;;;;;0.10;0.10;;;;;;;;;;5089846;28;20239;-76
2023/09/11 08:04:58;;;;;;;0.00;0.00;;;;;;;;;;5084372;28;20279;-76
2023/09/11 08:07:25;;;;;;;0.08;0.08;;;;;;;;;;5089633;28;20238;-76
2023/09/11 08:09:52;;;;;;;0.00;0.00;;;;;;;;;;5084520;28;20203;-76
2023/09/11 08:12:19;;;;;;;0.00;0.00;;;;;;;;;;5089634;28;20305;-76
2023/09/11 08:14:45;;;;;;;0.10;0.10;;;;;;;;;;5084400;28;20206;-76
2023/09/11 08:17:12;;;;;;;0.00;0.00;;;;;;;;;;5089424;28;20305;-76
2023/09/11 08:19:38;;;;;;;0.00;0.00;;;;;;;;;;5084280;28;20384;-76
2023/09/11 08:22:07;;;;;;;0.10;0.10;;;;;;;;;;5088929;28;20245;-75
2023/09/11 08:24:33;;;;;;;0.00;0.00;;;;;;;;;;5084118;28;20254;-75
2023/09/11 08:26:59;;;;;;;0.00;0.00;;;;;;;;;;5088210;28;20310;-76
2023/09/11 08:29:26;;;;;;;0.00;0.00;;;;;;;;;;5085060;28;20238;-76
2023/09/11 08:31:52;;;;;;;0.10;0.10;;;;;;;;;;5087120;28;20309;-75
2023/09/11 08:34:18;;;;;;;0.00;0.00;;;;;;;;;;5085487;28;20270;-75
2023/09/11 08:36:45;;;;;;;0.05;0.05;;;;;;;;;;5086028;28;20234;-76
2023/09/11 08:39:12;;;;;;;0.00;0.00;;;;;;;;;;5086893;28;20204;-75
2023/09/11 08:41:40;;;;;;;0.10;0.10;;;;;;;;;;5085304;28;20302;-75
2023/09/11 08:44:06;;;;;;;0.00;0.00;;;;;;;;;;5087430;28;20270;-75
2023/09/11 08:46:34;;;;;;;0.00;0.00;;;;;;;;;;5084299;28;20313;-75
2023/09/11 08:49:02;;;;;;;0.10;0.10;;;;;;;;;;5087705;28;20274;-75
2023/09/11 08:51:32;;;;;;;0.10;0.10;;;;;;;;;;5083721;28;20238;-75
2023/09/11 08:54:01;;;;;;;0.00;0.00;;;;;;;;;;5087467;28;20203;-76
2023/09/11 08:56:30;;;;;;;2.17;1.55;;;;;;;;;;5083672;28;20245;-76
2023/09/11 08:58:57;;;;;;;0.00;0.00;;;;;;;;;;5088671;28;20207;-75
2023/09/11 09:01:24;;;;;;;0.00;0.00;;;;;;;;;;5083050;28;20461;-75
2023/09/11 09:03:52;;;;;;;0.00;0.00;;;;;;;;;;5089224;28;20204;-82
2023/09/11 09:06:19;;;;;;;0.00;0.00;;;;;;;;;;5082302;28;20261;-78
2023/09/11 09:08:47;;;;;;;0.05;0.05;;;;;;;;;;5089940;28;20231;-81
2023/09/11 09:11:13;;;;;;;0.10;0.10;;;;;;;;;;5081544;28;20245;-79
2023/09/11 09:13:41;;;;;;;0.00;0.00;;;;;;;;;;5090547;28;20231;-81
2023/09/11 09:16:07;;;;;;;0.00;0.00;;;;;;;;;;5080767;28;20250;-80
2023/09/11 09:18:33;;;;;;;0.00;0.00;;;;;;;;;;5091342;28;20448;-80
2023/09/11 09:21:00;;;;;;;0.03;0.03;;;;;;;;;;5080030;28;20539;-82
2023/09/11 09:23:33;;;;;;;3.25;1.00;;;;;;;;;;5092113;28;20223;-80
2023/09/11 09:26:06;;;;;;;0.00;0.00;;;;;;;;;;5079597;28;20230;-80
2023/09/11 09:28:33;;;;;;;0.00;0.00;;;;;;;;;;5091257;28;20438;-79
2023/09/11 09:31:01;;;;;;;0.00;0.00;;;;;;;;;;5079692;28;20249;-77
2023/09/11 09:33:28;;;;;;;0.00;0.00;;;;;;;;;;5091803;28;20208;-76
2023/09/11 09:35:55;;;;;;;0.00;0.00;;;;;;;;;;5078852;28;20265;-76
2023/09/11 09:38:22;;;;;;;0.00;0.00;;;;;;;;;;5092618;28;20203;-77
2023/09/11 09:40:50;;;;;;;0.00;0.00;;;;;;;;;;5078319;28;20254;-77
2023/09/11 09:43:17;;;;;;;0.00;0.00;;;;;;;;;;5093362;28;20231;-76
2023/09/11 09:45:44;;;;;;;0.03;0.03;;;;;;;;;;5077306;28;20238;-77
2023/09/11 09:48:12;;;;;;;0.00;0.00;;;;;;;;;;5094076;28;20198;-75
2023/09/11 09:50:57;;;;;;;0.00;0.00;;;;;;;;;;5076572;28;20238;-76
2023/09/11 09:53:27;;;;;;;0.03;0.03;;;;;;;;;;5092103;28;20237;-76
2023/09/11 09:55:54;;;;;;;0.00;0.00;;;;;;;;;;5078663;28;20277;-76
2023/09/11 09:58:24;;;;;;;0.00;0.00;;;;;;;;;;5092659;28;20286;-77
2023/09/11 10:00:50;;;;;;;0.00;0.00;;;;;;;;;;5078317;28;20239;-77
2023/09/11 10:03:18;;;;;;;0.00;0.00;;;;;;;;;;5093087;28;20399;-76
2023/09/11 10:05:49;;;;;;;0.10;0.10;;;;;;;;;;5079598;28;20258;-77
2023/09/11 10:08:15;;;;;;;0.00;0.00;;;;;;;;;;5096923;28;20223;-76
2023/09/11 10:10:41;;;;;;;0.00;0.00;;;;;;;;;;5080514;28;20234;-75
2023/09/11 10:13:10;;;;;;;0.00;0.00;;;;;;;;;;5097499;28;20330;-80
2023/09/11 10:15:37;;;;;;;0.00;0.00;;;;;;;;;;5079677;28;20242;-75
2023/09/11 10:18:04;;;;;;;0.00;0.00;;;;;;;;;;5098216;28;20203;-74
2023/09/11 10:20:32;;;;;;;0.00;0.00;;;;;;;;;;5079150;28;20492;-75
2023/09/11 10:22:59;;;;;;;0.00;0.00;;;;;;;;;;5098631;28;20226;-75
2023/09/11 10:25:27;;;;;;;0.00;0.00;;;;;;;;;;5078358;28;20230;-75
2023/09/11 10:27:56;;;;;;;0.00;0.00;;;;;;;;;;5099179;28;20226;-76
2023/09/11 10:30:25;;;;;;;0.00;0.00;;;;;;;;;;5078069;28;20235;-74
2023/09/11 10:32:54;;;;;;;0.00;0.00;;;;;;;;;;5099326;28;20259;-75
2023/09/11 10:35:21;;;;;;;0.00;0.00;;;;;;;;;;5077490;28;20217;-74
2023/09/11 10:37:51;;;;;;;0.00;0.00;;;;;;;;;;5099780;28;20263;-74
2023/09/11 10:40:18;;;;;;;0.00;0.00;;;;;;;;;;5077075;28;20238;-74
2023/09/11 10:42:44;;;;;;;0.00;0.00;;;;;;;;;;5100112;28;20210;-72
2023/09/11 10:45:25;;;;;;;0.00;0.00;;;;;;;;;;5076086;28;20207;-73
2023/09/11 10:47:51;;;;;;;0.00;0.00;;;;;;;;;;5099311;28;20203;-73
2023/09/11 10:50:18;;;;;;;0.00;0.00;;;;;;;;;;5076761;28;20246;-75
2023/09/11 10:52:45;;;;;;;0.00;0.00;;;;;;;;;;5100136;28;20258;-76
2023/09/11 10:55:14;;;;;;;0.65;0.65;;;;;;;;;;5076031;28;20214;-74
2023/09/11 10:57:41;;;;;;;0.00;0.00;;;;;;;;;;5100324;28;20191;-75
2023/09/11 11:00:09;;;;;;;0.00;0.00;;;;;;;;;;5085817;28;20438;-75
2023/09/11 11:02:36;;;;;;;0.00;0.00;;;;;;;;;;5053970;28;20208;-75
2023/09/11 11:05:03;;;;;;;0.00;0.00;;;;;;;;;;5065727;28;20242;-74
2023/09/11 11:07:30;;;;;;;0.17;0.05;;;;;;;;;;5090585;28;20578;-75
2023/09/11 11:09:56;;;;;;;0.00;0.00;;;;;;;;;;5085186;28;20235;-75
2023/09/11 11:12:32;;;;;;;0.00;0.00;;;;;;;;;;5090631;28;20234;-74
2023/09/11 11:15:13;;;;;;;0.00;0.00;;;;;;;;;;5085413;28;20498;-75
2023/09/11 11:17:40;;;;;;;0.00;0.00;;;;;;;;;;5072456;28;20398;-73
2023/09/11 11:20:07;;;;;;;0.00;0.00;;;;;;;;;;5085388;28;20203;-74
2023/09/11 11:22:34;;;;;;;0.00;0.00;;;;;;;;;;5073590;28;20410;-73
2023/09/11 11:25:03;;;;;;;0.00;0.00;;;;;;;;;;5085306;28;20257;-73
2023/09/11 11:27:29;;;;;;;0.00;0.00;;;;;;;;;;5090293;28;20231;-73
2023/09/11 11:29:57;;;;;;;0.00;0.00;;;;;;;;;;5085272;28;20549;-73
2023/09/11 11:32:24;;;;;;;0.00;0.00;;;;;;;;;;5090266;28;20255;-73
2023/09/11 11:34:50;;;;;;;0.00;0.00;;;;;;;;;;5085221;28;20207;-74
2023/09/11 11:37:20;;;;;;;0.00;0.00;;;;;;;;;;5090290;28;20615;-73
2023/09/11 11:39:47;;;;;;;0.90;0.43;;;;;;;;;;5085123;28;20417;-72
2023/09/11 11:42:14;;;;;;;0.00;0.00;;;;;;;;;;5090085;28;20359;-73
2023/09/11 11:44:40;;;;;;;0.00;0.00;;;;;;;;;;5084907;28;20204;-74
2023/09/11 11:47:08;;;;;;;0.00;0.00;;;;;;;;;;5089836;28;20241;-73
2023/09/11 11:49:35;;;;;;;0.00;0.00;;;;;;;;;;5084848;28;20214;-74
2023/09/11 11:52:03;;;;;;;0.00;0.00;;;;;;;;;;5089198;28;20250;-73
2023/09/11 11:54:29;;;;;;;0.00;0.00;;;;;;;;;;5085270;28;20207;-73
2023/09/11 11:56:57;;;;;;;0.00;0.00;;;;;;;;;;5088299;28;20257;-73
2023/09/11 11:59:23;;;;;;;0.00;0.00;;;;;;;;;;5085917;28;20226;-73
2023/09/11 12:01:49;;;;;;;0.00;0.00;;;;;;;;;;5086872;28;20241;-72
2023/09/11 12:04:17;;;;;;;0.20;0.20;;;;;;;;;;5087112;28;20196;-73
2023/09/11 12:06:44;;;;;;;0.00;0.00;;;;;;;;;;5086424;28;20608;-73
2023/09/11 12:09:10;;;;;;;0.00;0.00;;;;;;;;;;5087344;28;20211;-73
2023/09/11 12:11:38;;;;;;;0.00;0.00;;;;;;;;;;5085555;28;20254;-73
2023/09/11 12:14:05;;;;;;;0.00;0.00;;;;;;;;;;5087769;28;20263;-73
2023/09/11 12:16:32;;;;;;;0.00;0.00;;;;;;;;;;5084566;28;20254;-73
2023/09/11 12:18:59;;;;;;;0.20;0.20;;;;;;;;;;5088780;28;20246;-73
2023/09/11 12:21:26;;;;;;;0.00;0.00;;;;;;;;;;5083794;28;20605;-73
2023/09/11 12:23:55;;;;;;;0.00;0.00;;;;;;;;;;5089339;28;20414;-73
2023/09/11 12:26:22;;;;;;;0.00;0.00;;;;;;;;;;5083616;28;20261;-77
2023/09/11 12:28:48;;;;;;;0.00;0.00;;;;;;;;;;5090134;28;20203;-79
2023/09/11 12:31:18;;;;;;;0.00;0.00;;;;;;;;;;5082520;28;20261;-74
2023/09/11 12:33:51;;;;;;;0.00;0.00;;;;;;;;;;5090356;28;20434;-74
2023/09/11 12:36:20;;;;;;;0.00;0.00;;;;;;;;;;5082547;28;20310;-74
2023/09/11 12:38:47;;;;;;;0.00;0.00;;;;;;;;;;5090143;28;20395;-74
2023/09/11 12:41:14;;;;;;;0.00;0.00;;;;;;;;;;5082049;28;20463;-74
2023/09/11 12:43:40;;;;;;;0.00;0.00;;;;;;;;;;5090807;28;20204;-74
2023/09/11 12:46:07;;;;;;;0.00;0.00;;;;;;;;;;5081036;28;20306;-74
2023/09/11 12:48:41;;;;;;;0.00;0.00;;;;;;;;;;5091474;28;20204;-74
2023/09/11 12:51:07;;;;;;;0.00;0.00;;;;;;;;;;5079476;28;20446;-74
2023/09/11 12:53:34;;;;;;;0.00;0.00;;;;;;;;;;5093445;28;20270;-74
2023/09/11 12:56:02;;;;;;;0.10;0.10;;;;;;;;;;5080174;28;20258;-74
2023/09/11 12:58:28;;;;;;;0.00;0.00;;;;;;;;;;5092382;28;20270;-73
2023/09/11 13:00:54;;;;;;;0.00;0.00;;;;;;;;;;5079422;28;20508;-73
2023/09/11 13:03:22;;;;;;;0.00;0.00;;;;;;;;;;5093129;28;20265;-74
2023/09/11 13:05:48;;;;;;;0.00;0.00;;;;;;;;;;5078607;28;20239;-73
2023/09/11 13:08:16;;;;;;;0.20;0.20;;;;;;;;;;5093523;28;20254;-74
2023/09/11 13:10:42;;;;;;;0.00;0.00;;;;;;;;;;5077746;28;20238;-74
2023/09/11 13:13:10;;;;;;;0.00;0.00;;;;;;;;;;5094706;28;20238;-74
2023/09/11 13:15:36;;;;;;;0.00;0.00;;;;;;;;;;5076838;28;20245;-75
2023/09/11 13:18:03;;;;;;;0.00;0.00;;;;;;;;;;5095421;28;20238;-74
2023/09/11 13:20:29;;;;;;;0.00;0.00;;;;;;;;;;5076102;28;20242;-73
2023/09/11 13:22:55;;;;;;;0.00;0.00;;;;;;;;;;5096265;28;20210;-74
2023/09/11 13:25:22;;;;;;;0.00;0.00;;;;;;;;;;5075120;28;20247;-74
2023/09/11 13:27:48;;;;;;;0.00;0.00;;;;;;;;;;5097211;28;20223;-74
2023/09/11 13:30:16;;;;;;;0.00;0.00;;;;;;;;;;5073664;28;20203;-74
2023/09/11 13:32:42;;;;;;;0.00;0.00;;;;;;;;;;5097765;28;20223;-74
2023/09/11 13:35:09;;;;;;;0.00;0.00;;;;;;;;;;5073876;28;20242;-73
2023/09/11 13:37:36;;;;;;;0.00;0.00;;;;;;;;;;5098676;28;20212;-73
2023/09/11 13:40:02;;;;;;;0.00;0.00;;;;;;;;;;5084877;28;20424;-73
2023/09/11 13:42:28;;;;;;;0.00;0.00;;;;;;;;;;5092388;28;20593;-74
2023/09/11 13:44:56;;;;;;;0.00;0.00;;;;;;;;;;5087204;28;20275;-74
2023/09/11 13:47:24;;;;;;;0.00;0.00;;;;;;;;;;5092142;28;20514;-75
2023/09/11 13:49:51;;;;;;;0.00;0.00;;;;;;;;;;5087184;28;20207;-74
2023/09/11 13:52:18;;;;;;;0.00;0.00;;;;;;;;;;5092206;28;20239;-74
2023/09/11 13:54:45;;;;;;;0.00;0.00;;;;;;;;;;5086982;28;20200;-74
2023/09/11 13:57:11;;;;;;;0.00;0.00;;;;;;;;;;5092117;28;20238;-74
2023/09/11 13:59:38;;;;;;;0.00;0.00;;;;;;;;;;5086946;28;20642;-74
2023/09/11 14:02:04;;;;;;;0.00;0.00;;;;;;;;;;5091392;28;20250;-81
2023/09/11 14:04:32;;;;;;;0.00;0.00;;;;;;;;;;5087361;28;20387;-75
2023/09/11 14:06:58;;;;;;;0.00;0.00;;;;;;;;;;5090559;28;20237;-74
2023/09/11 14:09:25;;;;;;;0.00;0.00;;;;;;;;;;5087676;28;20214;-74
2023/09/11 14:11:51;;;;;;;0.03;0.03;;;;;;;;;;5089647;28;20305;-74
2023/09/11 14:14:17;;;;;;;0.00;0.00;;;;;;;;;;5088514;28;20234;-75
2023/09/11 14:16:44;;;;;;;0.00;0.00;;;;;;;;;;5088382;28;20245;-75
2023/09/11 14:19:10;;;;;;;0.00;0.00;;;;;;;;;;5089672;28;20210;-74
2023/09/11 14:21:38;;;;;;;0.00;0.00;;;;;;;;;;5087449;28;20251;-74
2023/09/11 14:24:04;;;;;;;0.00;0.00;;;;;;;;;;5090112;28;20294;-74
2023/09/11 14:26:31;;;;;;;0.00;0.00;;;;;;;;;;5086597;28;20239;-74
2023/09/11 14:28:57;;;;;;;0.00;0.00;;;;;;;;;;5091057;28;20238;-74
2023/09/11 14:31:23;;;;;;;0.00;0.00;;;;;;;;;;5085642;28;20250;-75
2023/09/11 14:33:51;;;;;;;0.00;0.00;;;;;;;;;;5091821;28;20309;-75
2023/09/11 14:36:17;;;;;;;0.00;0.00;;;;;;;;;;5084701;28;20238;-75
2023/09/11 14:38:45;;;;;;;0.00;0.00;;;;;;;;;;5092624;28;20238;-75
2023/09/11 14:41:12;;;;;;;0.00;0.00;;;;;;;;;;5083964;28;20277;-74
2023/09/11 14:43:38;;;;;;;0.00;0.00;;;;;;;;;;5093275;28;20437;-74